sensor_id;sensor_type;location;lat;lon;timestamp;pressure;altitude;pressure_sealevel;temperature;humidity
39301;BME280;25019;42.626;23.380;2023-07-13T00:02:10;94681.00;;;21.42;62.35
39301;BME280;25019;42.626;23.380;2023-07-13T00:04:35;94568.31;;;20.71;62.22
39301;BME280;25019;42.626;23.380;2023-07-13T00:07:01;94668.56;;;21.32;62.04
39301;BME280;25019;42.626;23.380;2023-07-13T00:09:27;94676.41;;;21.43;62.03
39301;BME280;25019;42.626;23.380;2023-07-13T00:11:55;94675.41;;;21.38;62.38
39301;BME280;25019;42.626;23.380;2023-07-13T00:14:22;94676.03;;;21.35;62.23
39301;BME280;25019;42.626;23.380;2023-07-13T00:16:48;94674.88;;;21.28;62.49
39301;BME280;25019;42.626;23.380;2023-07-13T00:19:14;94676.59;;;21.23;62.15
39301;BME280;25019;42.626;23.380;2023-07-13T00:21:41;94675.94;;;21.18;62.83
39301;BME280;25019;42.626;23.380;2023-07-13T00:24:08;94681.97;;;21.15;63.49
39301;BME280;25019;42.626;23.380;2023-07-13T00:26:38;94681.88;;;21.06;64.53
39301;BME280;25019;42.626;23.380;2023-07-13T00:29:04;94598.72;;;20.40;65.77
39301;BME280;25019;42.626;23.380;2023-07-13T00:31:34;94563.72;;;20.26;66.37
39301;BME280;25019;42.626;23.380;2023-07-13T00:33:59;94663.06;;;20.92;67.47
39301;BME280;25019;42.626;23.380;2023-07-13T00:36:25;94668.94;;;20.94;68.16
39301;BME280;25019;42.626;23.380;2023-07-13T00:38:52;94580.44;;;20.36;68.50
39301;BME280;25019;42.626;23.380;2023-07-13T00:41:18;94665.97;;;20.95;68.96
39301;BME280;25019;42.626;23.380;2023-07-13T00:43:44;94666.88;;;20.91;69.43
39301;BME280;25019;42.626;23.380;2023-07-13T00:48:41;94649.53;;;20.69;70.10
39301;BME280;25019;42.626;23.380;2023-07-13T00:51:08;94670.59;;;20.81;69.93
39301;BME280;25019;42.626;23.380;2023-07-13T00:53:36;94660.81;;;20.71;70.61
39301;BME280;25019;42.626;23.380;2023-07-13T00:56:02;94648.38;;;20.61;70.79
39301;BME280;25019;42.626;23.380;2023-07-13T00:58:28;94652.44;;;20.73;70.86
39301;BME280;25019;42.626;23.380;2023-07-13T01:00:54;94595.16;;;20.30;70.88
39301;BME280;25019;42.626;23.380;2023-07-13T01:03:20;94657.16;;;20.67;71.56
39301;BME280;25019;42.626;23.380;2023-07-13T01:05:48;94591.28;;;20.23;70.87
39301;BME280;25019;42.626;23.380;2023-07-13T01:08:15;94651.88;;;20.62;70.35
39301;BME280;25019;42.626;23.380;2023-07-13T01:10:44;94647.09;;;20.59;70.30
39301;BME280;25019;42.626;23.380;2023-07-13T01:13:17;94646.91;;;20.55;70.34
39301;BME280;25019;42.626;23.380;2023-07-13T01:15:45;94654.69;;;20.57;70.24
39301;BME280;25019;42.626;23.380;2023-07-13T01:18:17;94649.09;;;20.53;70.38
39301;BME280;25019;42.626;23.380;2023-07-13T01:20:57;94556.75;;;19.88;70.83
39301;BME280;25019;42.626;23.380;2023-07-13T01:23:24;94662.72;;;20.48;70.96
39301;BME280;25019;42.626;23.380;2023-07-13T01:25:51;94660.44;;;20.41;71.61
39301;BME280;25019;42.626;23.380;2023-07-13T01:28:17;94662.06;;;20.28;72.09
39301;BME280;25019;42.626;23.380;2023-07-13T01:30:45;94667.94;;;20.30;72.29
39301;BME280;25019;42.626;23.380;2023-07-13T01:33:13;94661.28;;;20.28;73.00
39301;BME280;25019;42.626;23.380;2023-07-13T01:35:40;94665.56;;;20.29;73.58
39301;BME280;25019;42.626;23.380;2023-07-13T01:38:05;94594.66;;;19.77;73.55
39301;BME280;25019;42.626;23.380;2023-07-13T01:40:31;94662.38;;;20.27;73.97
39301;BME280;25019;42.626;23.380;2023-07-13T01:42:58;94665.84;;;20.27;74.32
39301;BME280;25019;42.626;23.380;2023-07-13T01:45:23;94662.16;;;20.23;74.02
39301;BME280;25019;42.626;23.380;2023-07-13T01:47:49;94662.31;;;20.18;74.82
39301;BME280;25019;42.626;23.380;2023-07-13T01:50:15;94663.69;;;20.15;75.19
39301;BME280;25019;42.626;23.380;2023-07-13T01:52:41;94654.91;;;20.10;75.55
39301;BME280;25019;42.626;23.380;2023-07-13T01:55:07;94644.66;;;19.98;75.92
39301;BME280;25019;42.626;23.380;2023-07-13T01:57:33;94659.81;;;20.08;75.96
39301;BME280;25019;42.626;23.380;2023-07-13T01:59:58;94657.22;;;20.02;76.27
39301;BME280;25019;42.626;23.380;2023-07-13T02:02:24;94661.94;;;19.97;76.31
39301;BME280;25019;42.626;23.380;2023-07-13T02:04:50;94662.84;;;19.92;76.98
39301;BME280;25019;42.626;23.380;2023-07-13T02:07:16;94655.94;;;19.86;76.43
39301;BME280;25019;42.626;23.380;2023-07-13T02:09:41;94662.41;;;19.85;76.81
39301;BME280;25019;42.626;23.380;2023-07-13T02:12:08;94666.50;;;19.82;77.16
39301;BME280;25019;42.626;23.380;2023-07-13T02:14:34;94665.38;;;19.83;77.74
39301;BME280;25019;42.626;23.380;2023-07-13T02:17:00;94653.03;;;19.68;77.53
39301;BME280;25019;42.626;23.380;2023-07-13T02:19:25;94661.50;;;19.75;78.08
39301;BME280;25019;42.626;23.380;2023-07-13T02:21:51;94616.31;;;19.44;78.46
39301;BME280;25019;42.626;23.380;2023-07-13T02:24:16;94560.94;;;19.10;78.51
39301;BME280;25019;42.626;23.380;2023-07-13T02:26:44;94665.81;;;19.76;78.72
39301;BME280;25019;42.626;23.380;2023-07-13T02:29:10;94666.41;;;19.73;78.40
39301;BME280;25019;42.626;23.380;2023-07-13T02:31:36;94673.78;;;19.68;77.99
39301;BME280;25019;42.626;23.380;2023-07-13T02:34:02;94671.50;;;19.61;79.02
39301;BME280;25019;42.626;23.380;2023-07-13T02:36:28;94684.97;;;19.61;78.36
39301;BME280;25019;42.626;23.380;2023-07-13T02:38:54;94673.09;;;19.62;78.85
39301;BME280;25019;42.626;23.380;2023-07-13T02:41:19;94662.81;;;19.50;78.86
39301;BME280;25019;42.626;23.380;2023-07-13T02:43:45;94673.59;;;19.64;78.64
39301;BME280;25019;42.626;23.380;2023-07-13T02:46:11;94671.69;;;19.65;78.01
39301;BME280;25019;42.626;23.380;2023-07-13T02:48:38;94670.78;;;19.69;77.81
39301;BME280;25019;42.626;23.380;2023-07-13T02:51:04;94610.31;;;19.34;77.62
39301;BME280;25019;42.626;23.380;2023-07-13T02:53:30;94671.78;;;19.73;77.51
39301;BME280;25019;42.626;23.380;2023-07-13T02:55:55;94657.22;;;19.60;78.11
39301;BME280;25019;42.626;23.380;2023-07-13T02:58:21;94673.88;;;19.63;78.11
39301;BME280;25019;42.626;23.380;2023-07-13T03:00:47;94669.91;;;19.60;77.90
39301;BME280;25019;42.626;23.380;2023-07-13T03:03:16;94671.69;;;19.65;78.04
39301;BME280;25019;42.626;23.380;2023-07-13T03:05:44;94576.41;;;19.05;78.19
39301;BME280;25019;42.626;23.380;2023-07-13T03:08:11;94666.63;;;19.63;77.97
39301;BME280;25019;42.626;23.380;2023-07-13T03:10:38;94671.00;;;19.73;77.61
39301;BME280;25019;42.626;23.380;2023-07-13T03:13:07;94650.63;;;19.53;77.76
39301;BME280;25019;42.626;23.380;2023-07-13T03:15:33;94679.00;;;19.78;77.70
39301;BME280;25019;42.626;23.380;2023-07-13T03:17:59;94682.38;;;19.84;78.11
39301;BME280;25019;42.626;23.380;2023-07-13T03:20:24;94630.78;;;19.49;78.03
39301;BME280;25019;42.626;23.380;2023-07-13T03:22:50;94683.66;;;19.86;78.18
39301;BME280;25019;42.626;23.380;2023-07-13T03:25:17;94678.00;;;19.88;78.40
39301;BME280;25019;42.626;23.380;2023-07-13T03:27:42;94685.19;;;19.93;78.53
39301;BME280;25019;42.626;23.380;2023-07-13T03:30:09;94683.78;;;19.95;78.46
39301;BME280;25019;42.626;23.380;2023-07-13T03:32:35;94684.19;;;20.02;78.12
39301;BME280;25019;42.626;23.380;2023-07-13T03:35:00;94673.91;;;20.04;77.88
39301;BME280;25019;42.626;23.380;2023-07-13T03:37:28;94687.16;;;20.15;77.75
39301;BME280;25019;42.626;23.380;2023-07-13T03:39:54;94689.44;;;20.21;76.87
39301;BME280;25019;42.626;23.380;2023-07-13T03:42:20;94675.97;;;20.21;76.80
39301;BME280;25019;42.626;23.380;2023-07-13T03:44:45;94676.63;;;20.41;77.00
39301;BME280;25019;42.626;23.380;2023-07-13T03:47:17;94678.22;;;20.79;76.16
39301;BME280;25019;42.626;23.380;2023-07-13T03:49:44;94674.28;;;21.08;74.69
39301;BME280;25019;42.626;23.380;2023-07-13T03:52:11;94675.78;;;21.46;73.21
39301;BME280;25019;42.626;23.380;2023-07-13T03:54:37;94676.88;;;21.76;71.37
39301;BME280;25019;42.626;23.380;2023-07-13T03:57:03;94680.94;;;22.05;70.41
39301;BME280;25019;42.626;23.380;2023-07-13T03:59:31;94675.16;;;22.47;68.93
39301;BME280;25019;42.626;23.380;2023-07-13T04:01:57;94674.97;;;22.87;66.82
39301;BME280;25019;42.626;23.380;2023-07-13T04:04:22;94682.44;;;23.26;65.00
39301;BME280;25019;42.626;23.380;2023-07-13T04:06:48;94669.91;;;23.60;64.18
39301;BME280;25019;42.626;23.380;2023-07-13T04:09:13;94674.06;;;23.96;63.42
39301;BME280;25019;42.626;23.380;2023-07-13T04:11:39;94675.63;;;24.36;62.39
39301;BME280;25019;42.626;23.380;2023-07-13T04:14:05;94585.06;;;24.19;60.70
39301;BME280;25019;42.626;23.380;2023-07-13T04:16:32;94603.44;;;24.77;59.27
39301;BME280;25019;42.626;23.380;2023-07-13T04:18:58;94678.53;;;25.62;57.99
39301;BME280;25019;42.626;23.380;2023-07-13T04:21:28;94677.66;;;25.82;56.55
39301;BME280;25019;42.626;23.380;2023-07-13T04:23:54;94671.75;;;26.05;56.49
39301;BME280;25019;42.626;23.380;2023-07-13T04:26:20;94629.25;;;26.00;55.66
39301;BME280;25019;42.626;23.380;2023-07-13T04:28:47;94638.88;;;26.10;55.79
39301;BME280;25019;42.626;23.380;2023-07-13T04:31:13;94689.31;;;26.57;55.17
39301;BME280;25019;42.626;23.380;2023-07-13T04:33:38;94697.19;;;26.87;54.06
39301;BME280;25019;42.626;23.380;2023-07-13T04:36:05;94695.44;;;27.24;53.21
39301;BME280;25019;42.626;23.380;2023-07-13T04:38:32;94684.25;;;27.41;52.35
39301;BME280;25019;42.626;23.380;2023-07-13T04:41:04;94630.16;;;27.43;51.38
39301;BME280;25019;42.626;23.380;2023-07-13T04:43:31;94682.69;;;28.20;50.09
39301;BME280;25019;42.626;23.380;2023-07-13T04:46:02;94683.66;;;28.64;49.13
39301;BME280;25019;42.626;23.380;2023-07-13T04:48:28;94700.31;;;29.14;48.11
39301;BME280;25019;42.626;23.380;2023-07-13T04:50:55;94693.19;;;29.49;46.74
39301;BME280;25019;42.626;23.380;2023-07-13T04:53:21;94667.00;;;29.48;45.94
39301;BME280;25019;42.626;23.380;2023-07-13T04:55:46;94608.72;;;29.24;45.20
39301;BME280;25019;42.626;23.380;2023-07-13T04:58:12;94705.16;;;30.07;44.65
39301;BME280;25019;42.626;23.380;2023-07-13T05:00:39;94706.25;;;30.29;43.83
39301;BME280;25019;42.626;23.380;2023-07-13T05:03:04;94706.22;;;30.52;43.25
39301;BME280;25019;42.626;23.380;2023-07-13T05:05:30;94701.31;;;30.61;42.65
39301;BME280;25019;42.626;23.380;2023-07-13T05:07:56;94703.59;;;30.86;41.97
39301;BME280;25019;42.626;23.380;2023-07-13T05:10:22;94701.84;;;31.05;41.88
39301;BME280;25019;42.626;23.380;2023-07-13T05:12:48;94649.69;;;30.67;41.65
39301;BME280;25019;42.626;23.380;2023-07-13T05:15:13;94669.13;;;30.89;41.82
39301;BME280;25019;42.626;23.380;2023-07-13T05:17:39;94682.97;;;31.00;42.02
39301;BME280;25019;42.626;23.380;2023-07-13T05:20:07;94713.22;;;31.07;41.90
39301;BME280;25019;42.626;23.380;2023-07-13T05:22:33;94717.72;;;31.19;42.13
39301;BME280;25019;42.626;23.380;2023-07-13T05:25:06;94713.94;;;31.31;42.00
39301;BME280;25019;42.626;23.380;2023-07-13T05:27:34;94693.94;;;31.30;42.32
39301;BME280;25019;42.626;23.380;2023-07-13T05:30:00;94720.47;;;31.57;42.19
39301;BME280;25019;42.626;23.380;2023-07-13T05:32:25;94714.84;;;31.76;41.33
39301;BME280;25019;42.626;23.380;2023-07-13T05:34:51;94724.78;;;31.95;41.41
39301;BME280;25019;42.626;23.380;2023-07-13T05:37:17;94708.50;;;32.17;40.83
39301;BME280;25019;42.626;23.380;2023-07-13T05:39:43;94718.56;;;32.47;40.67
39301;BME280;25019;42.626;23.380;2023-07-13T05:42:08;94726.47;;;32.56;40.87
39301;BME280;25019;42.626;23.380;2023-07-13T05:44:34;94714.38;;;32.68;40.09
39301;BME280;25019;42.626;23.380;2023-07-13T05:46:59;94722.38;;;32.91;39.73
39301;BME280;25019;42.626;23.380;2023-07-13T05:49:25;94725.63;;;33.19;39.37
39301;BME280;25019;42.626;23.380;2023-07-13T05:51:50;94724.56;;;33.41;38.43
39301;BME280;25019;42.626;23.380;2023-07-13T05:54:16;94719.13;;;33.70;38.70
39301;BME280;25019;42.626;23.380;2023-07-13T05:56:42;94718.41;;;33.91;38.37
39301;BME280;25019;42.626;23.380;2023-07-13T05:59:07;94725.09;;;34.01;38.49
39301;BME280;25019;42.626;23.380;2023-07-13T06:01:33;94719.59;;;34.09;38.87
39301;BME280;25019;42.626;23.380;2023-07-13T06:03:59;94725.91;;;34.27;37.76
39301;BME280;25019;42.626;23.380;2023-07-13T06:06:24;94723.53;;;34.33;38.21
39301;BME280;25019;42.626;23.380;2023-07-13T06:08:50;94715.66;;;34.42;38.41
39301;BME280;25019;42.626;23.380;2023-07-13T06:11:18;94664.09;;;34.25;38.35
39301;BME280;25019;42.626;23.380;2023-07-13T06:13:45;94670.38;;;34.25;38.61
39301;BME280;25019;42.626;23.380;2023-07-13T06:16:11;94706.22;;;34.47;38.66
39301;BME280;25019;42.626;23.380;2023-07-13T06:18:37;94679.47;;;34.15;37.89
39301;BME280;25019;42.626;23.380;2023-07-13T06:21:07;94688.13;;;34.28;38.12
39301;BME280;25019;42.626;23.380;2023-07-13T06:23:33;94696.38;;;34.39;37.67
39301;BME280;25019;42.626;23.380;2023-07-13T06:25:59;94719.22;;;34.46;38.13
39301;BME280;25019;42.626;23.380;2023-07-13T06:28:24;94716.81;;;34.63;38.21
39301;BME280;25019;42.626;23.380;2023-07-13T06:30:50;94708.94;;;34.65;36.70
39301;BME280;25019;42.626;23.380;2023-07-13T06:33:16;94698.31;;;34.67;36.86
39301;BME280;25019;42.626;23.380;2023-07-13T06:35:42;94698.31;;;34.67;36.57
39301;BME280;25019;42.626;23.380;2023-07-13T06:38:07;94668.00;;;34.56;35.52
39301;BME280;25019;42.626;23.380;2023-07-13T06:40:33;94706.91;;;34.91;35.41
39301;BME280;25019;42.626;23.380;2023-07-13T06:42:59;94675.44;;;34.74;35.25
39301;BME280;25019;42.626;23.380;2023-07-13T06:45:24;94708.53;;;34.77;35.55
39301;BME280;25019;42.626;23.380;2023-07-13T06:47:50;94714.47;;;34.40;35.58
39301;BME280;25019;42.626;23.380;2023-07-13T06:50:15;94720.78;;;34.44;36.35
39301;BME280;25019;42.626;23.380;2023-07-13T06:52:41;94718.41;;;34.13;36.58
39301;BME280;25019;42.626;23.380;2023-07-13T06:55:07;94667.97;;;33.62;37.02
39301;BME280;25019;42.626;23.380;2023-07-13T06:57:34;94690.31;;;33.35;37.68
39301;BME280;25019;42.626;23.380;2023-07-13T07:00:00;94707.38;;;32.81;38.83
39301;BME280;25019;42.626;23.380;2023-07-13T07:02:26;94700.13;;;32.51;39.58
39301;BME280;25019;42.626;23.380;2023-07-13T07:04:51;94709.75;;;32.27;40.23
39301;BME280;25019;42.626;23.380;2023-07-13T07:07:17;94710.28;;;31.95;40.09
39301;BME280;25019;42.626;23.380;2023-07-13T07:09:42;94716.09;;;31.48;41.82
39301;BME280;25019;42.626;23.380;2023-07-13T07:12:08;94713.56;;;31.02;42.36
39301;BME280;25019;42.626;23.380;2023-07-13T07:14:34;94719.97;;;30.56;43.73
39301;BME280;25019;42.626;23.380;2023-07-13T07:17:00;94714.91;;;30.31;45.88
39301;BME280;25019;42.626;23.380;2023-07-13T07:19:27;94710.22;;;30.04;46.29
39301;BME280;25019;42.626;23.380;2023-07-13T07:21:53;94729.72;;;29.80;45.89
39301;BME280;25019;42.626;23.380;2023-07-13T07:24:18;94719.66;;;29.87;46.12
39301;BME280;25019;42.626;23.380;2023-07-13T07:26:44;94709.06;;;30.06;45.67
39301;BME280;25019;42.626;23.380;2023-07-13T07:29:09;94691.97;;;30.16;45.20
39301;BME280;25019;42.626;23.380;2023-07-13T07:31:35;94714.25;;;30.38;44.54
39301;BME280;25019;42.626;23.380;2023-07-13T07:34:02;94717.06;;;30.45;44.21
39301;BME280;25019;42.626;23.380;2023-07-13T07:36:28;94713.47;;;30.64;42.52
39301;BME280;25019;42.626;23.380;2023-07-13T07:38:53;94711.66;;;30.75;43.00
39301;BME280;25019;42.626;23.380;2023-07-13T07:41:19;94706.19;;;30.75;42.96
39301;BME280;25019;42.626;23.380;2023-07-13T07:43:45;94645.97;;;30.56;42.43
39301;BME280;25019;42.626;23.380;2023-07-13T07:46:10;94695.00;;;31.18;43.32
39301;BME280;25019;42.626;23.380;2023-07-13T07:48:36;94691.94;;;31.27;43.53
39301;BME280;25019;42.626;23.380;2023-07-13T07:51:01;94695.97;;;31.37;43.84
39301;BME280;25019;42.626;23.380;2023-07-13T07:53:27;94695.34;;;31.51;43.89
39301;BME280;25019;42.626;23.380;2023-07-13T07:55:53;94637.25;;;31.07;43.89
39301;BME280;25019;42.626;23.380;2023-07-13T07:58:18;94690.50;;;31.41;44.58
39301;BME280;25019;42.626;23.380;2023-07-13T08:00:44;94687.75;;;31.37;43.88
39301;BME280;25019;42.626;23.380;2023-07-13T08:03:10;94685.81;;;31.41;43.62
39301;BME280;25019;42.626;23.380;2023-07-13T08:05:36;94690.38;;;31.26;44.95
39301;BME280;25019;42.626;23.380;2023-07-13T08:08:02;94686.94;;;31.02;45.21
39301;BME280;25019;42.626;23.380;2023-07-13T08:10:28;94633.41;;;30.51;46.09
39301;BME280;25019;42.626;23.380;2023-07-13T08:12:54;94675.25;;;30.48;46.96
39301;BME280;25019;42.626;23.380;2023-07-13T08:15:20;94659.28;;;30.27;47.45
39301;BME280;25019;42.626;23.380;2023-07-13T08:17:47;94649.72;;;30.13;48.34
39301;BME280;25019;42.626;23.380;2023-07-13T08:20:13;94618.69;;;29.82;48.56
39301;BME280;25019;42.626;23.380;2023-07-13T08:22:39;94651.84;;;29.77;47.93
39301;BME280;25019;42.626;23.380;2023-07-13T08:25:05;94662.13;;;29.60;47.60
39301;BME280;25019;42.626;23.380;2023-07-13T08:27:31;94668.34;;;29.57;49.25
39301;BME280;25019;42.626;23.380;2023-07-13T08:29:56;94650.38;;;29.60;49.72
39301;BME280;25019;42.626;23.380;2023-07-13T08:32:22;94658.84;;;29.51;49.37
39301;BME280;25019;42.626;23.380;2023-07-13T08:34:49;94665.72;;;29.41;49.01
39301;BME280;25019;42.626;23.380;2023-07-13T08:37:16;94660.59;;;29.20;48.95
39301;BME280;25019;42.626;23.380;2023-07-13T08:39:42;94649.94;;;29.15;49.19
39301;BME280;25019;42.626;23.380;2023-07-13T08:42:13;94651.53;;;29.16;48.62
39301;BME280;25019;42.626;23.380;2023-07-13T08:47:48;94651.81;;;29.30;49.43
39301;BME280;25019;42.626;23.380;2023-07-13T08:50:21;94629.94;;;29.30;48.95
39301;BME280;25019;42.626;23.380;2023-07-13T08:52:49;94597.59;;;29.13;49.22
39301;BME280;25019;42.626;23.380;2023-07-13T08:55:22;94645.59;;;29.53;48.54
39301;BME280;25019;42.626;23.380;2023-07-13T08:57:54;94587.56;;;29.21;47.54
39301;BME280;25019;42.626;23.380;2023-07-13T09:00:31;94649.31;;;29.65;47.53
39301;BME280;25019;42.626;23.380;2023-07-13T09:02:59;94644.50;;;29.58;47.60
39301;BME280;25019;42.626;23.380;2023-07-13T09:05:41;94656.00;;;29.67;47.64
39301;BME280;25019;42.626;23.380;2023-07-13T09:10:49;94663.94;;;29.76;47.06
39301;BME280;25019;42.626;23.380;2023-07-13T09:13:37;94676.31;;;29.89;47.67
39301;BME280;25019;42.626;23.380;2023-07-13T09:16:05;94680.00;;;30.01;47.64
39301;BME280;25019;42.626;23.380;2023-07-13T09:18:37;94682.88;;;30.08;46.70
39301;BME280;25019;42.626;23.380;2023-07-13T09:21:04;94682.25;;;30.18;46.67
39301;BME280;25019;42.626;23.380;2023-07-13T09:23:34;94631.59;;;29.82;46.28
39301;BME280;25019;42.626;23.380;2023-07-13T09:26:13;94683.03;;;30.19;45.92
39301;BME280;25019;42.626;23.380;2023-07-13T09:28:43;94681.56;;;30.25;45.22
39301;BME280;25019;42.626;23.380;2023-07-13T09:31:14;94686.88;;;30.14;45.17
39301;BME280;25019;42.626;23.380;2023-07-13T09:33:40;94671.63;;;30.13;45.73
39301;BME280;25019;42.626;23.380;2023-07-13T09:38:41;94681.53;;;30.22;45.58
39301;BME280;25019;42.626;23.380;2023-07-13T09:44:10;94679.56;;;30.49;46.16
39301;BME280;25019;42.626;23.380;2023-07-13T09:46:37;94675.13;;;30.68;47.47
39301;BME280;25019;42.626;23.380;2023-07-13T09:49:03;94666.69;;;30.80;46.94
39301;BME280;25019;42.626;23.380;2023-07-13T09:51:28;94660.50;;;30.87;47.03
39301;BME280;25019;42.626;23.380;2023-07-13T09:53:54;94654.38;;;30.97;46.07
39301;BME280;25019;42.626;23.380;2023-07-13T09:56:29;94635.88;;;30.90;44.51
39301;BME280;25019;42.626;23.380;2023-07-13T09:58:56;94648.56;;;31.02;44.81
39301;BME280;25019;42.626;23.380;2023-07-13T10:01:37;94632.16;;;31.09;44.63
39301;BME280;25019;42.626;23.380;2023-07-13T10:04:11;94636.00;;;31.35;44.96
39301;BME280;25019;42.626;23.380;2023-07-13T10:06:39;94587.53;;;31.13;45.22
39301;BME280;25019;42.626;23.380;2023-07-13T10:09:09;94635.63;;;31.41;44.47
39301;BME280;25019;42.626;23.380;2023-07-13T10:11:35;94634.47;;;31.42;43.01
39301;BME280;25019;42.626;23.380;2023-07-13T10:16:38;94627.91;;;31.50;42.95
39301;BME280;25019;42.626;23.380;2023-07-13T10:19:25;94619.34;;;31.59;43.29
39301;BME280;25019;42.626;23.380;2023-07-13T10:22:09;94621.75;;;31.67;43.63
39301;BME280;25019;42.626;23.380;2023-07-13T10:24:39;94548.16;;;31.28;42.81
39301;BME280;25019;42.626;23.380;2023-07-13T10:27:17;94622.75;;;31.86;43.38
39301;BME280;25019;42.626;23.380;2023-07-13T10:29:47;94610.53;;;31.80;42.66
39301;BME280;25019;42.626;23.380;2023-07-13T10:32:14;94620.03;;;31.93;42.89
39301;BME280;25019;42.626;23.380;2023-07-13T10:34:45;94549.50;;;31.52;42.25
39301;BME280;25019;42.626;23.380;2023-07-13T10:37:19;94605.88;;;31.88;42.04
39301;BME280;25019;42.626;23.380;2023-07-13T10:39:52;94606.69;;;31.92;42.49
39301;BME280;25019;42.626;23.380;2023-07-13T10:42:39;94605.59;;;32.04;42.31
39301;BME280;25019;42.626;23.380;2023-07-13T10:45:18;94600.16;;;32.11;42.39
39301;BME280;25019;42.626;23.380;2023-07-13T10:47:45;94596.66;;;32.18;41.94
39301;BME280;25019;42.626;23.380;2023-07-13T10:50:20;94546.34;;;31.99;42.11
39301;BME280;25019;42.626;23.380;2023-07-13T10:52:55;94530.63;;;32.00;41.02
39301;BME280;25019;42.626;23.380;2023-07-13T10:55:54;94587.78;;;32.39;40.55
39301;BME280;25019;42.626;23.380;2023-07-13T10:58:22;94577.97;;;32.38;39.66
39301;BME280;25019;42.626;23.380;2023-07-13T11:03:31;94572.50;;;32.45;39.06
39301;BME280;25019;42.626;23.380;2023-07-13T11:08:51;94523.78;;;32.31;40.64
39301;BME280;25019;42.626;23.380;2023-07-13T11:11:38;94563.94;;;32.65;39.91
39301;BME280;25019;42.626;23.380;2023-07-13T11:14:25;94566.69;;;32.65;38.98
39301;BME280;25019;42.626;23.380;2023-07-13T11:16:50;94553.34;;;32.70;37.68
39301;BME280;25019;42.626;23.380;2023-07-13T11:22:15;94539.22;;;32.79;39.87
39301;BME280;25019;42.626;23.380;2023-07-13T11:27:22;94544.81;;;33.08;38.38
39301;BME280;25019;42.626;23.380;2023-07-13T11:29:48;94546.44;;;33.13;36.93
39301;BME280;25019;42.626;23.380;2023-07-13T11:32:31;94540.91;;;33.16;35.34
39301;BME280;25019;42.626;23.380;2023-07-13T11:34:57;94551.13;;;33.20;37.34
39301;BME280;25019;42.626;23.380;2023-07-13T11:37:23;94531.09;;;33.15;36.51
39301;BME280;25019;42.626;23.380;2023-07-13T11:39:50;94534.22;;;33.21;37.10
39301;BME280;25019;42.626;23.380;2023-07-13T11:42:18;94489.03;;;33.00;37.65
39301;BME280;25019;42.626;23.380;2023-07-13T11:44:50;94526.00;;;33.25;35.19
39301;BME280;25019;42.626;23.380;2023-07-13T11:47:21;94527.19;;;33.31;33.69
39301;BME280;25019;42.626;23.380;2023-07-13T11:49:53;94474.88;;;33.09;34.74
39301;BME280;25019;42.626;23.380;2023-07-13T11:52:33;94517.75;;;33.36;35.91
39301;BME280;25019;42.626;23.380;2023-07-13T11:55:01;94514.97;;;33.32;35.64
39301;BME280;25019;42.626;23.380;2023-07-13T11:57:29;94516.59;;;33.40;36.23
39301;BME280;25019;42.626;23.380;2023-07-13T12:00:03;94515.00;;;33.39;35.41
39301;BME280;25019;42.626;23.380;2023-07-13T12:02:40;94511.06;;;33.51;35.78
39301;BME280;25019;42.626;23.380;2023-07-13T12:05:12;94511.88;;;33.41;33.89
39301;BME280;25019;42.626;23.380;2023-07-13T12:07:39;94478.81;;;33.34;33.42
39301;BME280;25019;42.626;23.380;2023-07-13T12:10:17;94504.00;;;33.57;33.30
39301;BME280;25019;42.626;23.380;2023-07-13T12:12:56;94499.28;;;33.61;32.78
39301;BME280;25019;42.626;23.380;2023-07-13T12:15:23;94500.44;;;33.64;33.90
39301;BME280;25019;42.626;23.380;2023-07-13T12:17:49;94506.34;;;33.70;34.33
39301;BME280;25019;42.626;23.380;2023-07-13T12:20:27;94502.41;;;33.74;33.63
39301;BME280;25019;42.626;23.380;2023-07-13T12:22:56;94492.94;;;33.79;35.29
39301;BME280;25019;42.626;23.380;2023-07-13T12:25:22;94390.78;;;33.30;34.80
39301;BME280;25019;42.626;23.380;2023-07-13T12:27:50;94486.25;;;33.95;35.70
39301;BME280;25019;42.626;23.380;2023-07-13T12:30:30;94477.59;;;34.00;34.39
39301;BME280;25019;42.626;23.380;2023-07-13T12:33:07;94463.78;;;34.07;34.56
39301;BME280;25019;42.626;23.380;2023-07-13T12:35:46;94464.53;;;34.18;33.63
39301;BME280;25019;42.626;23.380;2023-07-13T12:38:12;94460.97;;;34.18;33.97
39301;BME280;25019;42.626;23.380;2023-07-13T12:40:38;94470.44;;;34.17;33.59
39301;BME280;25019;42.626;23.380;2023-07-13T12:43:11;94466.94;;;34.13;33.07
39301;BME280;25019;42.626;23.380;2023-07-13T12:45:38;94459.88;;;34.04;32.88
39301;BME280;25019;42.626;23.380;2023-07-13T12:48:11;94449.63;;;34.01;32.34
39301;BME280;25019;42.626;23.380;2023-07-13T12:50:47;94456.75;;;33.95;32.29
39301;BME280;25019;42.626;23.380;2023-07-13T12:53:27;94433.91;;;33.98;32.43
39301;BME280;25019;42.626;23.380;2023-07-13T12:55:55;94442.94;;;34.10;33.04
39301;BME280;25019;42.626;23.380;2023-07-13T12:58:40;94451.13;;;34.17;33.56
39301;BME280;25019;42.626;23.380;2023-07-13T13:01:12;94447.19;;;34.29;32.77
39301;BME280;25019;42.626;23.380;2023-07-13T13:03:40;94441.28;;;34.27;32.17
39301;BME280;25019;42.626;23.380;2023-07-13T13:06:21;94447.19;;;34.29;33.31
39301;BME280;25019;42.626;23.380;2023-07-13T13:08:54;94428.31;;;34.20;31.69
39301;BME280;25019;42.626;23.380;2023-07-13T13:11:24;94431.06;;;34.20;32.15
39301;BME280;25019;42.626;23.380;2023-07-13T13:13:51;94388.25;;;34.04;32.47
39301;BME280;25019;42.626;23.380;2023-07-13T13:16:30;94431.00;;;34.31;32.38
39301;BME280;25019;42.626;23.380;2023-07-13T13:19:29;94424.69;;;34.34;32.01
39301;BME280;25019;42.626;23.380;2023-07-13T13:21:55;94414.44;;;34.38;32.04
39301;BME280;25019;42.626;23.380;2023-07-13T13:24:24;94425.81;;;34.51;32.03